createdAt,value
2019-03-15T00:01:38.361Z,151259.66
2019-03-15T00:04:06.826Z,151236.08
2019-03-15T00:06:35.308Z,151241.34
2019-03-15T00:09:05.295Z,151241.34
2019-03-15T00:11:33.779Z,151223.02
2019-03-15T00:14:02.262Z,151217.77
2019-03-15T00:16:30.739Z,151213.86
2019-03-15T00:18:59.226Z,151215.16
2019-03-15T00:21:29.217Z,151206.00
2019-03-15T00:23:57.696Z,151204.69
2019-03-15T00:26:26.179Z,151204.69
2019-03-15T00:28:54.670Z,151204.69
2019-03-15T00:31:23.196Z,151212.56
2019-03-15T00:33:51.721Z,151212.56
2019-03-15T00:36:20.158Z,151212.56
2019-03-15T00:38:48.663Z,151208.66
2019-03-15T00:41:17.141Z,151208.66
2019-03-15T00:43:49.042Z,151211.25
2019-03-15T00:46:15.843Z,151220.41
2019-03-15T00:48:44.342Z,151215.16
2019-03-15T00:51:12.812Z,151215.16
2019-03-15T00:53:41.289Z,151219.11
2019-03-15T00:56:09.785Z,151220.41
2019-03-15T00:58:38.284Z,151221.72
2019-03-15T01:01:06.790Z,151223.02
2019-03-15T01:03:35.273Z,151234.78
2019-03-15T01:06:03.737Z,151234.78
2019-03-15T01:08:32.238Z,151233.47
2019-03-15T01:11:00.702Z,151246.55
2019-03-15T01:13:29.196Z,151238.73
2019-03-15T01:15:57.659Z,151243.94
2019-03-15T01:18:26.140Z,151249.20
2019-03-15T01:20:54.609Z,151251.80
2019-03-15T01:23:23.099Z,151250.50
2019-03-15T01:25:51.573Z,151250.50
2019-03-15T01:28:20.050Z,151259.66
2019-03-15T01:30:48.517Z,151257.00
2019-03-15T01:33:17.005Z,151262.27
2019-03-15T01:35:45.461Z,151266.17
2019-03-15T01:38:13.955Z,151260.97
2019-03-15T01:40:42.469Z,151272.73
2019-03-15T01:43:10.963Z,151275.34
2019-03-15T01:45:39.433Z,151281.89
2019-03-15T01:48:07.924Z,151268.78
2019-03-15T01:50:36.398Z,151272.73
2019-03-15T01:53:04.907Z,151275.34
2019-03-15T01:55:33.348Z,151274.03
2019-03-15T01:58:01.827Z,151277.94
2019-03-15T02:00:30.305Z,151281.89
2019-03-15T02:03:02.086Z,151274.03
2019-03-15T02:05:29.011Z,151285.80
2019-03-15T02:07:57.506Z,151283.19
2019-03-15T02:10:25.993Z,151281.89
2019-03-15T02:12:54.968Z,151283.19
2019-03-15T02:15:23.500Z,151275.34
2019-03-15T02:17:52.636Z,151270.12
2019-03-15T02:20:22.587Z,151275.34
2019-03-15T02:22:51.070Z,151279.25
2019-03-15T02:25:19.605Z,151277.94
2019-03-15T02:27:48.103Z,151277.94
2019-03-15T02:30:16.620Z,151277.94
2019-03-15T02:32:45.123Z,151287.11
2019-03-15T02:35:13.670Z,151277.94
2019-03-15T02:37:42.134Z,151272.73
2019-03-15T02:40:10.707Z,151262.27
2019-03-15T02:42:39.156Z,151272.73
2019-03-15T02:45:08.694Z,151268.78
2019-03-15T02:47:37.214Z,151272.73
2019-03-15T02:50:07.321Z,151271.42
2019-03-15T02:52:35.795Z,151264.88
2019-03-15T02:55:05.218Z,151275.34
2019-03-15T02:57:35.542Z,151274.03
2019-03-15T03:00:05.455Z,151272.73
2019-03-15T03:02:33.930Z,151280.59
2019-03-15T03:05:02.418Z,151279.25
2019-03-15T03:07:30.890Z,151280.59
2019-03-15T03:09:59.419Z,151284.50
2019-03-15T03:12:27.855Z,151292.36
2019-03-15T03:14:56.456Z,151283.19
2019-03-15T03:17:26.239Z,151293.66
2019-03-15T03:19:54.734Z,151305.44
2019-03-15T03:22:23.202Z,151297.56
2019-03-15T03:24:51.702Z,151306.73
2019-03-15T03:27:20.177Z,151309.33
2019-03-15T03:29:48.713Z,151301.53
2019-03-15T03:32:17.183Z,151300.17
2019-03-15T03:34:45.680Z,151277.94
2019-03-15T03:37:14.220Z,151264.88
2019-03-15T03:39:42.729Z,151257.00
2019-03-15T03:42:11.164Z,151264.88
2019-03-15T03:44:39.660Z,151271.42
2019-03-15T03:47:08.120Z,151253.09
2019-03-15T03:49:36.619Z,151254.41
2019-03-15T03:52:05.097Z,151247.84
2019-03-15T03:54:33.582Z,151247.84
2019-03-15T03:57:02.047Z,151242.64
2019-03-15T03:59:30.548Z,151225.62
2019-03-15T04:01:59.046Z,151246.55
2019-03-15T04:04:27.684Z,151249.20
2019-03-15T04:06:56.148Z,151226.92
2019-03-15T04:09:24.643Z,151223.02
2019-03-15T04:11:55.678Z,151224.31
2019-03-15T04:14:23.342Z,151241.34
2019-03-15T04:16:51.829Z,151234.78
2019-03-15T04:19:20.335Z,151250.50
2019-03-15T04:21:48.813Z,151241.34
2019-03-15T04:24:17.299Z,151234.78
2019-03-15T04:26:45.782Z,151242.64
2019-03-15T04:29:14.263Z,151223.02
2019-03-15T04:31:42.768Z,151243.94
2019-03-15T04:34:11.250Z,151245.25
2019-03-15T04:36:39.751Z,151250.50
2019-03-15T04:39:08.419Z,151254.41
2019-03-15T04:41:36.899Z,151262.27
2019-03-15T04:44:05.452Z,151258.31
2019-03-15T04:46:33.967Z,151249.20
2019-03-15T04:49:02.445Z,151251.80
2019-03-15T04:51:30.942Z,151237.37
2019-03-15T04:53:59.400Z,151236.08
2019-03-15T04:56:27.859Z,151236.08
2019-03-15T04:58:56.337Z,151220.41
2019-03-15T05:01:24.832Z,151217.77
2019-03-15T05:03:53.303Z,151229.58
2019-03-15T05:06:21.781Z,151211.25
2019-03-15T05:08:50.263Z,151203.39
2019-03-15T05:11:18.755Z,151208.66
2019-03-15T05:13:47.235Z,151207.30
2019-03-15T05:16:15.734Z,151199.48
2019-03-15T05:18:44.224Z,151192.94
2019-03-15T05:21:12.713Z,151202.09
2019-03-15T05:23:41.157Z,151199.48
2019-03-15T05:26:09.657Z,151192.94
2019-03-15T05:28:38.142Z,151195.53
2019-03-15T05:31:06.651Z,151195.53
2019-03-15T05:33:35.099Z,151202.09
2019-03-15T05:36:03.600Z,151200.78
2019-03-15T05:38:34.700Z,151191.63
2019-03-15T05:41:02.318Z,151194.23
2019-03-15T05:43:30.788Z,151202.09
2019-03-15T05:45:59.284Z,151212.56
2019-03-15T05:48:27.763Z,151204.69
2019-03-15T05:50:56.249Z,151206.00
2019-03-15T05:53:24.708Z,151212.56
2019-03-15T05:55:53.232Z,151221.72
2019-03-15T05:58:22.167Z,151233.47
2019-03-15T06:00:50.786Z,151224.31
2019-03-15T06:03:19.297Z,151238.73
2019-03-15T06:05:47.785Z,151246.55
2019-03-15T06:08:16.277Z,151243.94
2019-03-15T06:10:44.757Z,151254.41
2019-03-15T06:13:13.234Z,151238.73
2019-03-15T06:15:41.762Z,151251.80
2019-03-15T06:18:10.244Z,151264.88
2019-03-15T06:20:38.762Z,151266.17
2019-03-15T06:23:07.253Z,151260.97
2019-03-15T06:25:35.771Z,151279.25
2019-03-15T06:28:04.222Z,151285.80
2019-03-15T06:30:32.703Z,151317.19
2019-03-15T06:33:01.187Z,151325.06
2019-03-15T06:35:29.694Z,151359.06
2019-03-15T06:37:58.191Z,151387.86
2019-03-15T06:40:26.710Z,151421.88
2019-03-15T06:42:55.194Z,151463.77
2019-03-15T06:45:23.694Z,151499.14
2019-03-15T06:47:52.160Z,151483.41
2019-03-15T06:50:20.659Z,151505.66
2019-03-15T06:52:49.138Z,151522.69
2019-03-15T06:55:17.623Z,151513.52
2019-03-15T06:57:46.104Z,151521.37
2019-03-15T07:00:16.045Z,151483.41
2019-03-15T07:02:44.542Z,151508.31
2019-03-15T07:05:13.182Z,151476.89
2019-03-15T07:07:41.690Z,151493.88
2019-03-15T07:10:11.421Z,151530.56
2019-03-15T07:12:40.819Z,151529.25
2019-03-15T07:15:14.071Z,151529.25
2019-03-15T07:17:42.578Z,151531.86
2019-03-15T07:20:15.787Z,151517.48
2019-03-15T07:22:44.294Z,151537.08
2019-03-15T07:25:12.836Z,151568.55
2019-03-15T07:27:42.756Z,151599.97
2019-03-15T07:30:16.081Z,151598.62
2019-03-15T07:32:44.580Z,151622.23
2019-03-15T07:35:13.038Z,151644.48
2019-03-15T07:37:41.522Z,151639.22
2019-03-15T07:40:12.314Z,151657.58
2019-03-15T07:42:40.810Z,151686.41
2019-03-15T07:45:11.137Z,151736.25
2019-03-15T07:47:39.638Z,151801.75
2019-03-15T07:50:13.998Z,151871.22
2019-03-15T07:52:41.298Z,151896.12
2019-03-15T07:55:10.404Z,151930.23
2019-03-15T07:57:38.888Z,151973.50
2019-03-15T08:00:13.000Z,151913.17
2019-03-15T08:02:41.488Z,151888.23
2019-03-15T08:05:10.128Z,151957.73
2019-03-15T08:07:44.707Z,152037.75
2019-03-15T08:10:11.130Z,152040.34
2019-03-15T08:12:39.751Z,152016.77
2019-03-15T08:15:13.122Z,151986.59
2019-03-15T08:17:41.626Z,151995.78
2019-03-15T08:20:12.402Z,151948.56
2019-03-15T08:22:40.886Z,151948.56
2019-03-15T08:25:11.954Z,151983.98
2019-03-15T08:27:40.434Z,152006.27
2019-03-15T08:30:11.717Z,151965.63
2019-03-15T08:32:43.493Z,151981.33
2019-03-15T08:35:11.334Z,151964.31
2019-03-15T08:37:39.841Z,151969.53
2019-03-15T08:40:10.451Z,151896.12
2019-03-15T08:42:40.185Z,151955.13
2019-03-15T08:45:17.458Z,151951.22
2019-03-15T08:47:45.962Z,152001.00
2019-03-15T08:50:19.018Z,152033.83
2019-03-15T08:52:47.686Z,151972.19
2019-03-15T08:55:16.169Z,151980.02
2019-03-15T08:57:44.633Z,151953.81
2019-03-15T09:00:19.809Z,151990.50
2019-03-15T09:02:48.261Z,152018.06
2019-03-15T09:05:17.403Z,152014.16
2019-03-15T09:07:45.951Z,152069.22
2019-03-15T09:10:23.802Z,152063.94
2019-03-15T09:12:51.017Z,152024.64
2019-03-15T09:15:19.585Z,152050.84
2019-03-15T09:17:48.058Z,152088.91
2019-03-15T09:20:16.563Z,152103.31
2019-03-15T09:22:45.397Z,152140.06
2019-03-15T09:25:20.225Z,152214.89
2019-03-15T09:27:48.361Z,152326.47
2019-03-15T09:30:23.584Z,152413.11
2019-03-15T09:32:47.703Z,152357.97
2019-03-15T09:35:16.285Z,152403.91
2019-03-15T09:37:47.448Z,152421.00
2019-03-15T09:40:16.311Z,152281.86
2019-03-15T09:42:45.018Z,152348.78
2019-03-15T09:45:18.862Z,152355.38
2019-03-15T09:47:47.355Z,152386.87
2019-03-15T09:50:26.665Z,152440.70
2019-03-15T09:52:46.924Z,152393.41
2019-03-15T09:55:15.824Z,152415.78
2019-03-15T09:57:44.376Z,152455.12
2019-03-15T10:00:17.637Z,152439.41
2019-03-15T10:02:46.105Z,152427.59
2019-03-15T10:05:14.794Z,152448.59
2019-03-15T10:07:44.164Z,152419.69
2019-03-15T10:10:19.311Z,152400.00
2019-03-15T10:12:48.260Z,152536.58
2019-03-15T10:15:17.500Z,152594.45
2019-03-15T10:17:47.670Z,152687.75
2019-03-15T10:20:16.339Z,152823.16
2019-03-15T10:22:44.849Z,152858.62
2019-03-15T10:25:17.303Z,152828.38
2019-03-15T10:27:45.798Z,152816.56
2019-03-15T10:30:15.854Z,152865.23
2019-03-15T10:32:44.403Z,152912.59
2019-03-15T10:35:13.001Z,152810.02
2019-03-15T10:37:41.460Z,152829.75
2019-03-15T10:40:15.773Z,152803.42
2019-03-15T10:42:44.258Z,152777.11
2019-03-15T10:45:12.846Z,152758.73
2019-03-15T10:47:42.642Z,152585.20
2019-03-15T10:50:16.370Z,152539.19
2019-03-15T10:52:44.933Z,152549.69
2019-03-15T10:55:13.840Z,152545.78
2019-03-15T10:57:42.316Z,152509.03
2019-03-15T11:00:20.949Z,152444.63
2019-03-15T11:02:49.575Z,152439.41
2019-03-15T11:05:18.073Z,152434.13
2019-03-15T11:07:46.617Z,152442.00
2019-03-15T11:10:15.984Z,152457.80
2019-03-15T11:12:44.471Z,152380.30
2019-03-15T11:15:14.749Z,152372.41
2019-03-15T11:17:43.215Z,152427.59
2019-03-15T11:20:12.455Z,152448.59
2019-03-15T11:22:40.947Z,152482.72
2019-03-15T11:25:10.719Z,152482.72
2019-03-15T11:27:39.146Z,152530.03
2019-03-15T11:30:10.350Z,152509.03
2019-03-15T11:32:38.992Z,152531.34
2019-03-15T11:35:08.925Z,152557.59
2019-03-15T11:37:37.407Z,152541.86
2019-03-15T11:40:13.835Z,152536.58
2019-03-15T11:42:41.394Z,152547.08
2019-03-15T11:45:10.957Z,152526.06
2019-03-15T11:48:00.680Z,152581.28
2019-03-15T11:50:17.551Z,152548.39
2019-03-15T11:52:46.044Z,152576.00
2019-03-15T11:55:14.657Z,152590.42
2019-03-15T11:57:43.253Z,152625.98
2019-03-15T12:00:18.576Z,152614.17
2019-03-15T12:02:47.114Z,152612.86
2019-03-15T12:05:15.761Z,152568.09
2019-03-15T12:07:44.314Z,152604.97
2019-03-15T12:10:16.885Z,152582.59
2019-03-15T12:12:45.417Z,152535.27
2019-03-15T12:15:18.039Z,152573.38
2019-03-15T12:17:46.559Z,152536.58
2019-03-15T12:20:15.076Z,152515.56
2019-03-15T12:22:43.543Z,152490.63
2019-03-15T12:25:12.791Z,152460.41
2019-03-15T12:27:41.260Z,152464.33
2019-03-15T12:30:16.580Z,152485.34
2019-03-15T12:32:45.063Z,152465.64
2019-03-15T12:35:14.399Z,152419.69
2019-03-15T12:37:42.863Z,152333.06
2019-03-15T12:40:14.393Z,152323.86
2019-03-15T12:42:42.962Z,152273.97
2019-03-15T12:45:14.973Z,152280.50
2019-03-15T12:47:43.435Z,152268.69
2019-03-15T12:50:14.045Z,152245.08
2019-03-15T12:52:47.636Z,152264.78
2019-03-15T12:55:13.814Z,152284.47
2019-03-15T12:57:43.176Z,152301.50
2019-03-15T13:00:15.781Z,152284.47
2019-03-15T13:02:44.279Z,152288.39
2019-03-15T13:05:12.813Z,152255.59
2019-03-15T13:07:41.354Z,152242.47
2019-03-15T13:10:12.424Z,152231.97
2019-03-15T13:12:40.912Z,152256.89
2019-03-15T13:15:14.215Z,152270.00
2019-03-15T13:17:42.701Z,152243.78
2019-03-15T13:20:17.960Z,152251.66
2019-03-15T13:22:46.462Z,152213.59
2019-03-15T13:25:15.197Z,152216.20
2019-03-15T13:27:43.717Z,152229.31
2019-03-15T13:30:14.238Z,152170.25
2019-03-15T13:32:42.756Z,152189.98
2019-03-15T13:35:11.760Z,152187.33
2019-03-15T13:37:42.845Z,152146.59
2019-03-15T13:40:12.506Z,152151.87
2019-03-15T13:42:41.058Z,152088.91
2019-03-15T13:45:11.410Z,152096.78
2019-03-15T13:47:39.893Z,152061.34
2019-03-15T13:50:11.498Z,152082.33
2019-03-15T13:52:39.996Z,152095.47
2019-03-15T13:55:08.581Z,152069.22
2019-03-15T13:57:37.070Z,152103.31
2019-03-15T14:00:17.011Z,152063.94
2019-03-15T14:02:45.525Z,152037.75
2019-03-15T14:05:13.999Z,151991.86
2019-03-15T14:07:42.491Z,152008.88
2019-03-15T14:10:12.784Z,151966.92
2019-03-15T14:12:41.262Z,151977.41
2019-03-15T14:15:18.280Z,151963.00
2019-03-15T14:17:46.806Z,151934.16
2019-03-15T14:20:15.255Z,151935.45
2019-03-15T14:22:43.790Z,151948.56
2019-03-15T14:25:17.738Z,151922.36
2019-03-15T14:27:46.257Z,151927.58
2019-03-15T14:30:15.349Z,151883.02
2019-03-15T14:32:43.824Z,151884.33
2019-03-15T14:35:12.615Z,151881.72
2019-03-15T14:37:41.184Z,151872.53
2019-03-15T14:40:11.202Z,151851.56
2019-03-15T14:42:39.937Z,151851.56
2019-03-15T14:45:15.814Z,151831.89
2019-03-15T14:47:44.455Z,151827.98
2019-03-15T14:50:14.045Z,151842.38
2019-03-15T14:52:42.612Z,151816.14
2019-03-15T14:55:12.603Z,151814.84
2019-03-15T14:57:51.320Z,151783.39
2019-03-15T15:00:14.505Z,151767.69
2019-03-15T15:02:42.988Z,151793.88
2019-03-15T15:05:12.483Z,151801.75
2019-03-15T15:07:41.044Z,151793.88
2019-03-15T15:10:14.098Z,151783.39
2019-03-15T15:12:42.583Z,151792.56
2019-03-15T15:15:15.366Z,151766.39
2019-03-15T15:17:43.857Z,151767.69
2019-03-15T15:20:13.260Z,151765.08
2019-03-15T15:22:41.761Z,151761.12
2019-03-15T15:25:12.779Z,151775.56
2019-03-15T15:27:41.343Z,151780.78
2019-03-15T15:30:14.269Z,151769.00
2019-03-15T15:32:42.828Z,151793.88
2019-03-15T15:35:13.998Z,151803.06
2019-03-15T15:37:42.494Z,151814.84
2019-03-15T15:40:13.540Z,151820.11
2019-03-15T15:42:42.029Z,151795.19
2019-03-15T15:45:11.839Z,151817.50
2019-03-15T15:47:40.332Z,151812.23
2019-03-15T15:50:11.086Z,151826.69
2019-03-15T15:52:39.617Z,151830.59
2019-03-15T15:55:12.316Z,151830.59
2019-03-15T15:57:40.806Z,151834.50
2019-03-15T16:00:17.484Z,151835.81
2019-03-15T16:02:45.962Z,151844.98
2019-03-15T16:05:14.881Z,151851.56
2019-03-15T16:07:43.359Z,151872.53
2019-03-15T16:10:13.167Z,151880.41
2019-03-15T16:12:42.149Z,151880.41
2019-03-15T16:15:20.443Z,151885.62
2019-03-15T16:17:48.961Z,151898.72
2019-03-15T16:20:17.465Z,151910.56
2019-03-15T16:22:45.996Z,151914.48
2019-03-15T16:25:14.552Z,151930.23
2019-03-15T16:27:43.115Z,151940.72
2019-03-15T16:30:19.763Z,151949.86
2019-03-15T16:32:48.231Z,151956.44
2019-03-15T16:35:17.261Z,151963.00
2019-03-15T16:37:45.738Z,151966.92
2019-03-15T16:40:16.985Z,151976.11
2019-03-15T16:42:45.462Z,151982.69
2019-03-15T16:45:19.898Z,151987.91
2019-03-15T16:47:48.398Z,151993.17
2019-03-15T16:50:16.864Z,151987.91
2019-03-15T16:52:45.388Z,151987.91
2019-03-15T16:55:15.416Z,152004.97
2019-03-15T16:57:43.948Z,152006.27
2019-03-15T17:00:16.216Z,152008.88
2019-03-15T17:02:46.258Z,151987.91
2019-03-15T17:05:15.354Z,151999.69
2019-03-15T17:07:43.975Z,152004.97
2019-03-15T17:10:19.862Z,152007.58
2019-03-15T17:12:48.405Z,151997.09
2019-03-15T17:15:26.996Z,151994.47
2019-03-15T17:17:55.526Z,152002.34
2019-03-15T17:20:23.982Z,152001.00
2019-03-15T17:22:52.488Z,151990.50
2019-03-15T17:25:21.040Z,151985.28
2019-03-15T17:27:49.549Z,151977.41
2019-03-15T17:30:18.862Z,151981.33
2019-03-15T17:32:47.352Z,151980.02
2019-03-15T17:35:18.868Z,151990.50
2019-03-15T17:37:47.383Z,151990.50
2019-03-15T17:40:17.850Z,151981.33
2019-03-15T17:42:46.374Z,151982.69
2019-03-15T17:45:14.894Z,151985.28
2019-03-15T17:47:43.478Z,151994.47
2019-03-15T17:50:16.445Z,152001.00
2019-03-15T17:52:44.943Z,151995.78
2019-03-15T17:55:14.235Z,151991.86
2019-03-15T17:57:45.317Z,151972.19
2019-03-15T18:00:17.210Z,151980.02
2019-03-15T18:02:45.710Z,151972.19
2019-03-15T18:05:14.714Z,151968.22
2019-03-15T18:07:43.205Z,151964.31
2019-03-15T18:10:11.978Z,151953.81
2019-03-15T18:12:40.456Z,151959.03
2019-03-15T18:15:10.595Z,151956.44
2019-03-15T18:17:39.088Z,151949.86
2019-03-15T18:20:09.699Z,151952.52
2019-03-15T18:22:38.161Z,151953.81
2019-03-15T18:25:08.516Z,151947.25
2019-03-15T18:27:36.997Z,151944.64
2019-03-15T18:30:11.143Z,151931.53
2019-03-15T18:32:39.598Z,151928.87
2019-03-15T18:35:09.532Z,151918.39
2019-03-15T18:37:38.088Z,151913.17
2019-03-15T18:40:14.740Z,151904.00
2019-03-15T18:42:43.445Z,151900.08
2019-03-15T18:45:14.472Z,151888.23
2019-03-15T18:47:43.025Z,151880.41
2019-03-15T18:50:24.761Z,151884.33
2019-03-15T18:52:53.227Z,151877.75
2019-03-15T18:55:21.722Z,151892.20
2019-03-15T18:57:50.174Z,151883.02
2019-03-15T19:00:20.167Z,151880.41
2019-03-15T19:02:48.813Z,151884.33
2019-03-15T19:05:17.296Z,151883.02
2019-03-15T19:07:45.910Z,151893.50
2019-03-15T19:10:15.348Z,151901.37
2019-03-15T19:12:43.877Z,151898.72
2019-03-15T19:15:19.710Z,151901.37
2019-03-15T19:17:48.191Z,151896.12
2019-03-15T19:20:17.928Z,151896.12
2019-03-15T19:22:46.466Z,151884.33
2019-03-15T19:25:15.807Z,151885.62
2019-03-15T19:27:44.372Z,151879.11
2019-03-15T19:30:15.047Z,151867.27
2019-03-15T19:32:43.597Z,151864.66
2019-03-15T19:35:12.172Z,151854.17
2019-03-15T19:37:40.645Z,151843.69
2019-03-15T19:40:12.177Z,151833.20
2019-03-15T19:42:40.649Z,151826.69
2019-03-15T19:45:14.395Z,151807.02
2019-03-15T19:47:43.068Z,151792.56
2019-03-15T19:50:22.230Z,151791.27
2019-03-15T19:52:50.769Z,151778.17
2019-03-15T19:55:19.284Z,151770.30
2019-03-15T19:57:47.749Z,151762.42
2019-03-15T20:00:17.568Z,151744.12
2019-03-15T20:02:46.035Z,151744.12
2019-03-15T20:05:14.596Z,151736.25
2019-03-15T20:07:43.135Z,151729.67
2019-03-15T20:10:16.540Z,151712.63
2019-03-15T20:12:43.929Z,151707.41
2019-03-15T20:15:14.869Z,151698.19
2019-03-15T20:17:43.361Z,151694.28
2019-03-15T20:20:13.792Z,151689.02
2019-03-15T20:22:42.271Z,151687.70
2019-03-15T20:25:12.724Z,151673.31
2019-03-15T20:27:41.210Z,151666.75
2019-03-15T20:30:25.933Z,151660.19
2019-03-15T20:32:51.052Z,151647.09
2019-03-15T20:35:19.605Z,151644.48
2019-03-15T20:37:48.235Z,151645.80
2019-03-15T20:40:16.716Z,151632.70
2019-03-15T20:42:45.183Z,151611.75
2019-03-15T20:45:32.058Z,151622.23
2019-03-15T20:48:00.594Z,151615.66
2019-03-15T20:50:29.095Z,151614.36
2019-03-15T20:53:07.673Z,151602.58
2019-03-15T20:55:28.960Z,151592.09
2019-03-15T20:57:57.810Z,151597.31
2019-03-15T21:00:35.457Z,151592.09
2019-03-15T21:02:56.482Z,151576.36
2019-03-15T21:05:24.967Z,151585.53
2019-03-15T21:07:53.532Z,151584.23
2019-03-15T21:10:22.088Z,151580.33
2019-03-15T21:12:50.538Z,151576.36
2019-03-15T21:15:19.087Z,151572.45
2019-03-15T21:17:47.548Z,151571.16
2019-03-15T21:20:17.288Z,151558.02
2019-03-15T21:22:45.861Z,151559.37
2019-03-15T21:25:14.469Z,151558.02
2019-03-15T21:27:52.912Z,151550.20
2019-03-15T21:30:23.789Z,151552.81
2019-03-15T21:32:52.310Z,151541.03
2019-03-15T21:35:20.805Z,151543.64
2019-03-15T21:37:49.326Z,151530.56
2019-03-15T21:40:19.829Z,151521.37
2019-03-15T21:42:48.313Z,151510.91
2019-03-15T21:45:16.821Z,151510.91
2019-03-15T21:47:45.421Z,151510.91
2019-03-15T21:50:19.066Z,151510.91
2019-03-15T21:52:47.537Z,151508.31
2019-03-15T21:55:16.035Z,151499.14
2019-03-15T21:57:44.560Z,151484.70
2019-03-15T22:00:15.896Z,151484.70
2019-03-15T22:02:44.361Z,151484.70
2019-03-15T22:05:12.830Z,151482.09
2019-03-15T22:07:41.446Z,151475.53
2019-03-15T22:10:12.145Z,151476.89
2019-03-15T22:12:40.621Z,151463.77
2019-03-15T22:15:10.646Z,151463.77
2019-03-15T22:17:39.197Z,151455.94
2019-03-15T22:20:10.639Z,151446.78
2019-03-15T22:22:39.333Z,151445.47
2019-03-15T22:25:09.223Z,151440.22
2019-03-15T22:27:38.090Z,151438.91
2019-03-15T22:30:10.486Z,151442.81
2019-03-15T22:32:39.006Z,151429.75
2019-03-15T22:35:08.042Z,151437.61
2019-03-15T22:37:36.505Z,151428.44
2019-03-15T22:40:08.072Z,151431.05
2019-03-15T22:42:36.545Z,151417.97
2019-03-15T22:45:07.513Z,151419.28
2019-03-15T22:47:36.013Z,151419.28
2019-03-15T22:50:06.235Z,151408.81
2019-03-15T22:52:34.777Z,151407.50
2019-03-15T22:55:03.218Z,151416.67
2019-03-15T22:57:31.739Z,151408.81
2019-03-15T23:00:00.410Z,151403.59
2019-03-15T23:02:28.883Z,151398.34
2019-03-15T23:04:57.443Z,151403.59
2019-03-15T23:07:25.947Z,151400.94
2019-03-15T23:09:54.439Z,151398.34
2019-03-15T23:12:22.928Z,151398.34
2019-03-15T23:14:51.416Z,151397.03
2019-03-15T23:17:19.895Z,151390.47
2019-03-15T23:19:48.361Z,151380.00
2019-03-15T23:22:16.876Z,151376.09
2019-03-15T23:24:45.337Z,151377.41
2019-03-15T23:27:13.818Z,151372.14
2019-03-15T23:29:42.285Z,151376.09
2019-03-15T23:32:10.784Z,151372.14
2019-03-15T23:34:39.257Z,151359.06
2019-03-15T23:37:07.743Z,151356.47
2019-03-15T23:39:36.237Z,151359.06
2019-03-15T23:42:04.721Z,151363.02
2019-03-15T23:44:33.219Z,151346.00
2019-03-15T23:47:01.738Z,151348.59
2019-03-15T23:49:30.210Z,151351.20
2019-03-15T23:51:58.728Z,151355.16
2019-03-15T23:54:27.186Z,151351.20
2019-03-15T23:56:55.686Z,151353.86
2019-03-15T23:59:24.260Z,151351.20
